Time;durP1;ratioP1;P1;durP2;ratioP2;P2;SDS_P1;SDS_P2;PMS_P1;PMS_P2;Temp;Humidity;BMP_temperature;BMP_pressure;BME280_temperature;BME280_humidity;BME280_pressure;Samples;Min_cycle;Max_cycle;Signal;HPM_P1;HPM_P2
2023/03/14 00:01:17;;;;;;;3.20;3.00;;;13.50;99.90;;;;;;4910109;29;20197;-74
2023/03/14 00:03:44;;;;;;;5.13;3.10;;;13.40;99.90;;;;;;4919211;29;20173;-74
2023/03/14 00:06:11;;;;;;;3.37;3.07;;;13.40;99.90;;;;;;4916749;29;20458;-74
2023/03/14 00:08:37;;;;;;;4.93;2.83;;;13.40;99.90;;;;;;4918311;29;20441;-74
2023/03/14 00:11:12;;;;;;;4.33;3.13;;;13.50;99.90;;;;;;4918052;29;20410;-74
2023/03/14 00:13:38;;;;;;;3.53;3.23;;;13.50;99.90;;;;;;4900009;29;20639;-74
2023/03/14 00:16:06;;;;;;;5.63;3.37;;;13.50;99.90;;;;;;4910707;29;20445;-74
2023/03/14 00:18:32;;;;;;;3.80;3.50;;;13.50;99.90;;;;;;4917351;29;20485;-74
2023/03/14 00:21:00;;;;;;;3.30;3.10;;;13.50;99.90;;;;;;4917332;29;20417;-75
2023/03/14 00:23:28;;;;;;;3.63;3.10;;;13.50;99.90;;;;;;4918818;29;20429;-74
2023/03/14 00:25:53;;;;;;;4.27;3.33;;;13.60;99.90;;;;;;4914395;29;20438;-76
2023/03/14 00:28:19;;;;;;;6.20;3.27;;;13.40;99.90;;;;;;4899641;29;20520;-75
2023/03/14 00:30:48;;;;;;;3.67;3.37;;;13.40;99.90;;;;;;4916260;29;20449;-74
2023/03/14 00:33:13;;;;;;;3.63;3.33;;;13.40;99.90;;;;;;4915834;29;20209;-74
2023/03/14 00:35:39;;;;;;;4.70;3.40;;;13.40;99.90;;;;;;4917871;29;20438;-74
2023/03/14 00:38:05;;;;;;;3.73;3.00;;;13.30;99.90;;;;;;4917046;29;20218;-74
2023/03/14 00:40:30;;;;;;;4.83;2.90;;;13.40;99.90;;;;;;4917802;29;20210;-74
2023/03/14 00:42:56;;;;;;;3.33;3.10;;;13.40;99.90;;;;;;4915428;29;20327;-76
2023/03/14 00:45:22;;;;;;;3.20;2.90;;;13.40;99.90;;;;;;4917227;29;20172;-74
2023/03/14 00:47:47;;;;;;;3.80;2.90;;;13.30;99.90;;;;;;4916550;29;20283;-74
2023/03/14 00:50:13;;;;;;;3.20;2.90;;;13.20;99.90;;;;;;4916872;29;20338;-74
2023/03/14 00:52:39;;;;;;;3.63;3.40;;;13.20;99.90;;;;;;4918262;29;20204;-74
2023/03/14 00:55:05;;;;;;;4.10;3.00;;;13.20;99.90;;;;;;4916329;29;20517;-74
2023/03/14 00:57:31;;;;;;;4.43;3.17;;;13.10;99.90;;;;;;4916087;29;20197;-74
2023/03/14 00:59:56;;;;;;;3.73;3.20;;;13.10;99.90;;;;;;4917174;29;20971;-75
2023/03/14 01:02:22;;;;;;;3.50;3.30;;;13.00;99.90;;;;;;4917524;29;20238;-74
2023/03/14 01:04:49;;;;;;;5.27;3.10;;;13.00;99.90;;;;;;4916581;29;20195;-74
2023/03/14 01:07:15;;;;;;;3.33;3.07;;;13.00;99.90;;;;;;4915169;29;20364;-75
2023/03/14 01:09:41;;;;;;;4.17;3.23;;;13.00;99.90;;;;;;4917608;29;20442;-74
2023/03/14 01:12:06;;;;;;;3.57;3.00;;;13.00;99.90;;;;;;4916379;29;20445;-74
2023/03/14 01:14:32;;;;;;;4.43;3.20;;;13.00;99.90;;;;;;4916704;29;20194;-74
2023/03/14 01:17:00;;;;;;;3.83;3.53;;;13.10;99.90;;;;;;4916618;29;20664;-76
2023/03/14 01:19:28;;;;;;;4.40;3.20;;;13.10;99.90;;;;;;4916076;29;20223;-74
2023/03/14 01:21:54;;;;;;;3.47;2.70;;;13.00;99.90;;;;;;4917257;29;20479;-75
2023/03/14 01:24:20;;;;;;;4.30;3.50;;;13.20;99.90;;;;;;4916081;29;20444;-74
2023/03/14 01:26:46;;;;;;;4.20;3.00;;;13.10;99.90;;;;;;4915857;29;20471;-74
2023/03/14 01:29:12;;;;;;;3.07;2.87;;;13.20;99.90;;;;;;4915189;29;20445;-75
2023/03/14 01:31:37;;;;;;;3.70;2.80;;;13.20;99.90;;;;;;4917277;29;20475;-74
2023/03/14 01:34:03;;;;;;;4.03;2.90;;;13.00;99.90;;;;;;4916032;29;20194;-74
2023/03/14 01:36:29;;;;;;;3.27;2.97;;;12.70;99.90;;;;;;4916950;29;20656;-74
2023/03/14 01:38:54;;;;;;;3.03;2.93;;;12.70;99.90;;;;;;4916581;29;20268;-74
2023/03/14 01:41:23;;;;;;;3.20;2.93;;;12.60;99.90;;;;;;4915874;29;20251;-74
2023/03/14 01:43:49;;;;;;;3.77;2.70;;;12.40;99.90;;;;;;4916202;29;20241;-74
2023/03/14 01:46:34;;;;;;;2.63;2.53;;;12.30;99.90;;;;;;4916093;29;20919;-74
2023/03/14 01:49:06;;;;;;;2.33;2.23;;;12.30;99.90;;;;;;4914507;29;20466;-76
2023/03/14 01:51:38;;;;;;;2.57;2.40;;;12.30;99.90;;;;;;4916792;29;20907;-74
2023/03/14 01:54:29;;;;;;;2.80;2.60;;;12.40;99.90;;;;;;4915576;29;20431;-75
2023/03/14 01:57:18;;;;;;;2.07;2.00;;;12.50;99.90;;;;;;4894120;29;20449;-74
2023/03/14 02:00:15;;;;;;;3.90;2.10;;;12.40;99.90;;;;;;4898126;29;20542;-74
2023/03/14 02:02:47;;;;;;;3.47;3.17;;;12.00;99.90;;;;;;4890272;29;20443;-74
2023/03/14 02:05:17;;;;;;;2.77;2.40;;;12.00;99.90;;;;;;4909469;29;20432;-74
2023/03/14 02:07:49;;;;;;;2.30;2.20;;;11.90;99.90;;;;;;4914326;29;20436;-74
2023/03/14 02:10:18;;;;;;;2.90;2.60;;;12.00;99.90;;;;;;4914839;29;20544;-74
2023/03/14 02:12:45;;;;;;;2.63;2.40;;;12.00;99.90;;;;;;4915425;29;20454;-74
2023/03/14 02:15:11;;;;;;;2.80;2.50;;;12.10;99.90;;;;;;4915380;29;20468;-74
2023/03/14 02:17:39;;;;;;;3.97;2.67;;;12.10;99.90;;;;;;4915478;29;20435;-74
2023/03/14 02:20:23;;;;;;;7.50;4.27;;;12.10;99.90;;;;;;4914384;29;20501;-74
2023/03/14 02:22:49;;;;;;;2.83;2.63;;;12.20;99.90;;;;;;4916101;29;20476;-74
2023/03/14 02:26:02;;;;;;;3.93;3.53;;;12.20;99.90;;;;;;4915093;29;20542;-74
2023/03/14 02:28:28;;;;;;;4.00;3.00;;;12.20;99.90;;;;;;4906025;29;20207;-74
2023/03/14 02:30:54;;;;;;;2.70;2.60;;;12.10;99.90;;;;;;4915788;29;20414;-75
2023/03/14 02:33:22;;;;;;;2.60;2.40;;;12.00;99.90;;;;;;4914792;29;20199;-75
2023/03/14 02:36:04;;;;;;;3.87;3.20;;;12.10;99.90;;;;;;4915529;29;20632;-75
2023/03/14 02:39:03;;;;;;;5.47;2.87;;;12.10;99.90;;;;;;4915723;29;20477;-74
2023/03/14 02:41:29;;;;;;;4.10;2.67;;;12.00;99.90;;;;;;4880505;29;20456;-75
2023/03/14 02:43:55;;;;;;;4.80;2.70;;;12.00;99.90;;;;;;4916332;29;20849;-74
2023/03/14 02:46:22;;;;;;;3.10;2.90;;;12.10;99.90;;;;;;4914830;29;20442;-75
2023/03/14 02:48:54;;;;;;;5.50;3.50;;;12.10;99.90;;;;;;4914652;29;20197;-74
2023/03/14 02:51:21;;;;;;;2.93;2.73;;;12.10;99.90;;;;;;4914293;29;21262;-74
2023/03/14 02:53:47;;;;;;;5.67;3.00;;;12.20;99.90;;;;;;4915601;29;20423;-74
2023/03/14 02:56:12;;;;;;;3.37;2.90;;;12.20;99.90;;;;;;4913365;29;21481;-75
2023/03/14 02:58:38;;;;;;;3.97;3.00;;;12.20;99.90;;;;;;4914401;29;20289;-75
2023/03/14 03:01:05;;;;;;;2.57;2.37;;;12.20;99.90;;;;;;4915199;29;20195;-77
2023/03/14 03:03:30;;;;;;;2.97;2.77;;;12.20;99.90;;;;;;4915702;29;20206;-75
2023/03/14 03:05:56;;;;;;;2.63;2.53;;;12.20;99.90;;;;;;4916396;29;20419;-74
2023/03/14 03:08:25;;;;;;;4.17;2.77;;;12.20;99.90;;;;;;4913776;29;20277;-75
2023/03/14 03:10:51;;;;;;;2.97;2.67;;;12.20;99.90;;;;;;4915358;29;20494;-75
2023/03/14 03:13:17;;;;;;;2.43;2.33;;;12.20;99.90;;;;;;4914256;29;20442;-75
2023/03/14 03:15:43;;;;;;;2.20;2.10;;;12.20;99.90;;;;;;4914828;29;20442;-75
2023/03/14 03:18:09;;;;;;;5.33;2.60;;;12.30;99.90;;;;;;4914414;29;20214;-75
2023/03/14 03:20:35;;;;;;;4.30;2.67;;;12.30;99.90;;;;;;4915230;29;20486;-75
2023/03/14 03:23:01;;;;;;;3.80;2.90;;;12.20;99.90;;;;;;4913230;29;20186;-75
2023/03/14 03:25:27;;;;;;;3.03;2.17;;;12.20;99.90;;;;;;4914621;29;20441;-75
2023/03/14 03:27:54;;;;;;;5.10;2.13;;;12.20;99.90;;;;;;4914412;29;20558;-74
2023/03/14 03:30:20;;;;;;;2.73;2.40;;;12.20;99.90;;;;;;4914358;29;20468;-75
2023/03/14 03:32:46;;;;;;;4.60;2.37;;;12.20;99.90;;;;;;4915948;29;20895;-74
2023/03/14 03:35:12;;;;;;;2.63;2.40;;;12.20;99.90;;;;;;4914254;29;20470;-75
2023/03/14 03:37:38;;;;;;;2.70;2.27;;;12.30;99.90;;;;;;4914032;29;20430;-74
2023/03/14 03:40:05;;;;;;;3.37;2.17;;;12.20;99.90;;;;;;4915057;29;20416;-76
2023/03/14 03:42:32;;;;;;;2.40;2.10;;;12.20;99.90;;;;;;4912634;29;20441;-74
2023/03/14 03:44:59;;;;;;;2.60;2.40;;;12.10;99.90;;;;;;4915235;29;20502;-76
2023/03/14 03:47:25;;;;;;;3.63;2.30;;;12.10;99.90;;;;;;4913900;29;20530;-75
2023/03/14 03:49:51;;;;;;;4.00;2.20;;;12.10;99.90;;;;;;4914939;29;20524;-75
2023/03/14 03:52:17;;;;;;;2.53;2.27;;;12.20;99.90;;;;;;4912363;29;20575;-74
2023/03/14 03:54:43;;;;;;;5.60;2.30;;;12.20;99.90;;;;;;4915652;29;20187;-74
2023/03/14 03:57:08;;;;;;;2.43;2.23;;;12.30;99.90;;;;;;4913408;29;20921;-76
2023/03/14 03:59:34;;;;;;;2.53;2.33;;;12.40;99.90;;;;;;4914815;29;20308;-75
2023/03/14 04:02:00;;;;;;;2.70;2.40;;;12.40;99.90;;;;;;4915613;29;20193;-75
2023/03/14 04:04:26;;;;;;;2.30;2.10;;;12.40;99.90;;;;;;4914067;29;20430;-75
2023/03/14 04:06:51;;;;;;;2.73;2.63;;;12.30;99.90;;;;;;4916245;29;20190;-73
2023/03/14 04:09:17;;;;;;;2.73;2.53;;;12.30;99.90;;;;;;4918293;29;20174;-73
2023/03/14 04:11:43;;;;;;;3.87;2.63;;;12.30;99.90;;;;;;4918344;29;20218;-74
2023/03/14 04:14:09;;;;;;;2.60;2.40;;;12.20;99.90;;;;;;4917404;29;20221;-75
2023/03/14 04:16:34;;;;;;;3.67;2.67;;;12.20;99.90;;;;;;4918656;29;20805;-74
2023/03/14 04:19:01;;;;;;;3.30;2.67;;;12.10;99.90;;;;;;4918067;29;20694;-74
2023/03/14 04:21:27;;;;;;;3.07;2.87;;;12.10;99.90;;;;;;4916791;29;20435;-74
2023/03/14 04:23:53;;;;;;;2.93;2.70;;;11.90;99.90;;;;;;4918405;29;21018;-74
2023/03/14 04:26:18;;;;;;;3.23;2.90;;;11.80;99.90;;;;;;4915808;29;20191;-74
2023/03/14 04:28:44;;;;;;;3.00;2.70;;;11.80;99.90;;;;;;4916955;29;20197;-74
2023/03/14 04:31:12;;;;;;;2.70;2.50;;;11.80;99.90;;;;;;4918102;29;20218;-75
2023/03/14 04:33:38;;;;;;;2.80;2.70;;;11.80;99.90;;;;;;4916805;29;20548;-74
2023/03/14 04:36:05;;;;;;;3.23;3.03;;;11.80;99.90;;;;;;4916598;29;20434;-73
2023/03/14 04:38:31;;;;;;;4.10;3.83;;;11.90;99.90;;;;;;4916847;29;21280;-74
2023/03/14 04:40:57;;;;;;;4.53;2.80;;;11.90;99.90;;;;;;4913583;29;20430;-77
2023/03/14 04:43:23;;;;;;;3.17;2.97;;;12.00;99.90;;;;;;4915258;29;20982;-75
2023/03/14 04:45:49;;;;;;;3.30;2.97;;;12.00;99.90;;;;;;4916378;29;20470;-74
2023/03/14 04:48:14;;;;;;;2.90;2.70;;;12.10;99.90;;;;;;4916382;29;20437;-74
2023/03/14 04:50:40;;;;;;;3.10;2.87;;;12.10;99.90;;;;;;4900696;29;20226;-73
2023/03/14 04:53:06;;;;;;;2.80;2.60;;;12.20;99.90;;;;;;4918256;29;20204;-74
2023/03/14 04:55:34;;;;;;;2.90;2.50;;;12.20;99.90;;;;;;4915657;29;20757;-73
2023/03/14 04:58:00;;;;;;;3.50;3.30;;;12.20;99.90;;;;;;4918133;29;20459;-74
2023/03/14 05:00:26;;;;;;;3.60;2.40;;;12.20;99.90;;;;;;4916520;29;20462;-74
2023/03/14 05:02:51;;;;;;;2.40;2.30;;;12.10;99.90;;;;;;4917679;29;20194;-74
2023/03/14 05:05:17;;;;;;;3.27;3.07;;;12.00;99.90;;;;;;4915387;29;20185;-73
2023/03/14 05:07:43;;;;;;;3.40;3.20;;;12.10;99.90;;;;;;4916611;29;20619;-73
2023/03/14 05:10:09;;;;;;;4.20;2.93;;;12.10;99.90;;;;;;4917395;29;20188;-73
2023/03/14 05:12:35;;;;;;;3.30;2.47;;;12.10;99.90;;;;;;4917344;29;20190;-73
2023/03/14 05:15:01;;;;;;;6.30;3.40;;;12.10;99.90;;;;;;4917477;29;20440;-73
2023/03/14 05:17:26;;;;;;;3.10;2.20;;;12.20;99.90;;;;;;4916171;29;20699;-73
2023/03/14 05:19:52;;;;;;;2.70;2.40;;;12.20;99.90;;;;;;4916914;29;20231;-73
2023/03/14 05:22:18;;;;;;;4.60;2.47;;;12.30;99.90;;;;;;4917112;29;20211;-74
2023/03/14 05:24:44;;;;;;;8.63;2.93;;;12.30;99.90;;;;;;4917956;29;20217;-73
2023/03/14 05:27:09;;;;;;;3.57;2.87;;;12.20;99.90;;;;;;4905764;29;20440;-73
2023/03/14 05:29:35;;;;;;;3.50;3.20;;;12.10;99.90;;;;;;4916851;29;20236;-74
2023/03/14 05:32:01;;;;;;;2.60;2.10;;;12.10;99.90;;;;;;4917147;29;20190;-73
2023/03/14 05:34:26;;;;;;;2.50;2.20;;;12.10;99.90;;;;;;4916807;29;20191;-73
2023/03/14 05:36:52;;;;;;;3.70;2.27;;;12.00;99.90;;;;;;4916548;29;20181;-73
2023/03/14 05:39:18;;;;;;;3.23;2.47;;;11.80;99.90;;;;;;4916510;29;20585;-73
2023/03/14 05:41:43;;;;;;;3.57;2.00;;;12.00;99.90;;;;;;4917485;29;20185;-73
2023/03/14 05:44:09;;;;;;;2.10;1.97;;;12.00;99.90;;;;;;4916947;29;20624;-73
2023/03/14 05:46:35;;;;;;;3.00;2.70;;;11.80;99.90;;;;;;4914751;29;20198;-73
2023/03/14 05:49:01;;;;;;;1.90;1.73;;;11.80;99.90;;;;;;4915378;29;20201;-73
2023/03/14 05:51:26;;;;;;;4.30;2.83;;;11.90;99.90;;;;;;4915729;29;20639;-74
2023/03/14 05:53:52;;;;;;;2.73;2.53;;;11.90;99.90;;;;;;4917163;29;20418;-73
2023/03/14 05:56:18;;;;;;;2.87;2.73;;;12.00;99.90;;;;;;4916485;29;20418;-74
2023/03/14 05:58:44;;;;;;;3.30;3.10;;;12.00;99.90;;;;;;4916081;29;20219;-74
2023/03/14 06:01:09;;;;;;;2.73;2.63;;;11.90;99.90;;;;;;4915586;29;20201;-74
2023/03/14 06:03:35;;;;;;;3.33;3.10;;;11.70;99.90;;;;;;4916249;29;20194;-73
2023/03/14 06:06:01;;;;;;;2.87;2.77;;;11.70;99.90;;;;;;4916966;29;20619;-74
2023/03/14 06:08:28;;;;;;;3.30;3.20;;;11.70;99.90;;;;;;4915302;29;20271;-73
2023/03/14 06:10:53;;;;;;;3.17;3.00;;;11.50;99.90;;;;;;4916936;29;20843;-73
2023/03/14 06:13:19;;;;;;;3.00;2.80;;;11.50;99.90;;;;;;4915973;29;20454;-74
2023/03/14 06:15:45;;;;;;;3.50;3.10;;;11.60;99.90;;;;;;4916848;29;20189;-73
2023/03/14 06:18:12;;;;;;;3.30;3.20;;;11.70;99.90;;;;;;4916027;29;20524;-73
2023/03/14 06:20:38;;;;;;;4.33;3.93;;;11.70;99.90;;;;;;4914796;29;20186;-73
2023/03/14 06:23:08;;;;;;;2.97;2.77;;;11.70;99.90;;;;;;4916725;29;20453;-73
2023/03/14 06:25:35;;;;;;;3.70;2.53;;;11.60;99.90;;;;;;4898911;29;20447;-74
2023/03/14 06:28:01;;;;;;;3.53;3.23;;;11.70;99.90;;;;;;4915868;29;20453;-74
2023/03/14 06:30:27;;;;;;;2.70;2.50;;;11.70;99.90;;;;;;4914466;29;20468;-73
2023/03/14 06:32:53;;;;;;;2.60;2.50;;;11.70;99.90;;;;;;4916240;29;20788;-73
2023/03/14 06:35:19;;;;;;;2.60;2.50;;;11.70;99.90;;;;;;4915955;29;20421;-74
2023/03/14 06:37:44;;;;;;;3.30;2.83;;;11.70;99.90;;;;;;4915687;29;20509;-73
2023/03/14 06:40:16;;;;;;;2.80;2.67;;;11.70;99.90;;;;;;4916376;29;20230;-73
2023/03/14 06:42:43;;;;;;;3.37;3.20;;;11.70;99.90;;;;;;4915757;29;20928;-73
2023/03/14 06:45:09;;;;;;;2.90;2.70;;;11.70;99.90;;;;;;4916125;29;20417;-73
2023/03/14 06:47:35;;;;;;;3.40;3.23;;;11.70;99.90;;;;;;4914284;29;21121;-74
2023/03/14 06:50:01;;;;;;;2.30;2.20;;;11.70;99.90;;;;;;4915538;29;20524;-73
2023/03/14 06:52:27;;;;;;;2.60;2.50;;;11.80;99.90;;;;;;4915270;29;20410;-74
2023/03/14 06:54:52;;;;;;;3.03;2.83;;;11.90;99.90;;;;;;4916169;29;20502;-74
2023/03/14 06:57:18;;;;;;;3.87;3.67;;;11.80;99.90;;;;;;4915527;29;20549;-74
2023/03/14 06:59:44;;;;;;;3.43;3.33;;;11.90;99.90;;;;;;4914127;29;20215;-74
2023/03/14 07:02:13;;;;;;;3.43;3.33;;;11.80;99.90;;;;;;4915902;29;20227;-73
2023/03/14 07:04:39;;;;;;;2.83;2.73;;;11.80;99.90;;;;;;4907313;29;20187;-74
2023/03/14 07:07:05;;;;;;;2.67;2.57;;;11.80;99.90;;;;;;4911801;29;20793;-76
2023/03/14 07:09:31;;;;;;;3.83;3.70;;;11.80;99.90;;;;;;4911841;29;20458;-76
2023/03/14 07:11:57;;;;;;;2.63;2.53;;;12.10;99.90;;;;;;4913223;29;20469;-74
2023/03/14 07:14:23;;;;;;;2.90;2.80;;;12.40;99.90;;;;;;4911603;29;20486;-74
2023/03/14 07:16:48;;;;;;;2.90;2.80;;;12.10;99.90;;;;;;4913544;29;20190;-75
2023/03/14 07:19:14;;;;;;;3.57;3.37;;;12.10;99.90;;;;;;4913612;29;20387;-78
2023/03/14 07:21:40;;;;;;;4.07;3.80;;;;;;;;;;4909151;29;20192;-77
2023/03/14 07:24:06;;;;;;;3.83;3.53;;;;;;;;;;4911493;29;20246;-77
2023/03/14 07:26:32;;;;;;;3.17;3.00;;;12.80;99.90;;;;;;4911190;29;20427;-77
2023/03/14 07:28:59;;;;;;;3.23;2.77;;;13.00;99.90;;;;;;4915920;29;20428;-77
2023/03/14 07:31:25;;;;;;;2.40;2.20;;;13.20;99.90;;;;;;4912357;29;20428;-77
2023/03/14 07:33:50;;;;;;;2.53;2.43;;;13.30;99.90;;;;;;4915838;29;20428;-77
2023/03/14 07:36:17;;;;;;;3.27;3.17;;;13.40;99.90;;;;;;4915823;29;20415;-77
2023/03/14 07:38:42;;;;;;;2.80;2.70;;;13.50;99.90;;;;;;4909424;29;20220;-75
2023/03/14 07:41:08;;;;;;;2.40;2.30;;;13.70;99.90;;;;;;4912536;29;20447;-74
2023/03/14 07:43:34;;;;;;;2.17;2.07;;;13.50;99.90;;;;;;4918354;29;20223;-75
2023/03/14 07:46:00;;;;;;;3.00;2.90;;;13.40;99.90;;;;;;4919626;29;20452;-74
2023/03/14 07:48:27;;;;;;;2.60;2.50;;;13.10;99.90;;;;;;4917435;29;20191;-75
2023/03/14 07:50:54;;;;;;;2.30;2.20;;;12.90;99.90;;;;;;4917276;29;20237;-75
2023/03/14 07:53:21;;;;;;;2.67;2.57;;;12.90;99.90;;;;;;4919076;29;20794;-77
2023/03/14 07:55:47;;;;;;;3.93;3.63;;;12.80;99.90;;;;;;4916659;29;20494;-75
2023/03/14 07:58:14;;;;;;;3.47;3.27;;;12.80;99.90;;;;;;4914693;29;20489;-76
2023/03/14 08:00:39;;;;;;;2.10;2.07;;;12.80;99.90;;;;;;4912783;29;21015;-75
2023/03/14 08:03:05;;;;;;;3.10;3.00;;;12.80;99.90;;;;;;4916778;29;20447;-75
2023/03/14 08:05:34;;;;;;;2.40;2.30;;;12.80;99.90;;;;;;4914696;29;20199;-75
2023/03/14 08:08:00;;;;;;;2.97;2.77;;;12.80;99.90;;;;;;4912070;29;20443;-74
2023/03/14 08:10:26;;;;;;;3.53;3.33;;;12.80;99.90;;;;;;4914085;29;20501;-74
2023/03/14 08:12:55;;;;;;;2.53;2.43;;;12.70;99.90;;;;;;4918733;29;20191;-74
2023/03/14 08:15:22;;;;;;;2.53;2.43;;;12.60;99.90;;;;;;4915494;29;20192;-76
2023/03/14 08:17:50;;;;;;;3.40;3.20;;;12.40;99.90;;;;;;4915496;29;20434;-74
2023/03/14 08:20:27;;;;;;;3.20;3.10;;;12.50;99.90;;;;;;4913599;29;20483;-75
2023/03/14 08:22:56;;;;;;;3.27;3.17;;;12.50;99.90;;;;;;4917217;29;20788;-74
2023/03/14 08:25:22;;;;;;;2.87;2.77;;;12.60;99.90;;;;;;4916276;29;20955;-76
2023/03/14 08:27:48;;;;;;;2.47;2.37;;;12.50;99.90;;;;;;4913805;29;20450;-74
2023/03/14 08:30:15;;;;;;;3.20;3.00;;;12.50;99.90;;;;;;4913751;29;20312;-74
2023/03/14 08:32:41;;;;;;;3.57;3.37;;;12.70;99.90;;;;;;4917987;29;20270;-75
2023/03/14 08:35:07;;;;;;;3.97;3.70;;;12.60;99.90;;;;;;4918644;29;20892;-75
2023/03/14 08:37:34;;;;;;;2.97;2.80;;;12.50;99.90;;;;;;4915833;29;20296;-75
2023/03/14 08:40:00;;;;;;;3.37;3.17;;;12.60;99.90;;;;;;4917063;29;20462;-75
2023/03/14 08:42:26;;;;;;;3.73;3.53;;;12.60;99.90;;;;;;4916663;29;20441;-76
2023/03/14 08:44:52;;;;;;;3.60;3.40;;;12.50;99.90;;;;;;4917177;29;20458;-75
2023/03/14 08:47:18;;;;;;;4.10;3.90;;;12.50;99.90;;;;;;4916836;29;20669;-75
2023/03/14 08:49:44;;;;;;;3.10;3.00;;;12.50;99.90;;;;;;4917896;29;21016;-75
2023/03/14 08:52:10;;;;;;;3.30;3.20;;;12.50;99.90;;;;;;4918394;29;20425;-75
2023/03/14 08:54:36;;;;;;;3.70;3.50;;;12.60;99.90;;;;;;4908842;29;20192;-75
2023/03/14 08:57:01;;;;;;;2.77;2.67;;;12.60;99.90;;;;;;4903862;29;20250;-75
2023/03/14 08:59:27;;;;;;;2.83;2.73;;;12.60;99.90;;;;;;4900415;29;20210;-77
2023/03/14 09:01:54;;;;;;;3.10;3.00;;;12.60;99.90;;;;;;4917668;29;20201;-75
2023/03/14 09:04:20;;;;;;;2.70;2.60;;;12.60;99.90;;;;;;4916269;29;20200;-75
2023/03/14 09:06:46;;;;;;;3.30;3.10;;;12.70;99.90;;;;;;4915989;29;20830;-75
2023/03/14 09:09:13;;;;;;;5.27;4.77;;;12.60;99.90;;;;;;4915650;29;20435;-74
2023/03/14 09:11:39;;;;;;;3.30;3.20;;;12.70;99.90;;;;;;4917195;29;20268;-75
2023/03/14 09:14:05;;;;;;;3.53;3.23;;;12.80;99.90;;;;;;4897690;29;20501;-75
2023/03/14 09:16:30;;;;;;;2.80;2.70;;;12.80;99.90;;;;;;4914682;29;20439;-76
2023/03/14 09:18:59;;;;;;;3.10;2.90;;;12.80;99.90;;;;;;4916873;29;20306;-75
2023/03/14 09:21:26;;;;;;;2.60;2.50;;;12.80;99.90;;;;;;4917604;29;20190;-77
2023/03/14 09:23:53;;;;;;;3.07;2.87;;;12.80;99.90;;;;;;4916282;29;20442;-75
2023/03/14 09:26:19;;;;;;;2.90;2.80;;;12.80;99.90;;;;;;4915807;29;20776;-77
2023/03/14 09:28:44;;;;;;;3.23;2.87;;;12.90;99.90;;;;;;4914825;29;20451;-77
2023/03/14 09:31:11;;;;;;;2.70;2.60;;;12.90;99.90;;;;;;4915860;29;20193;-75
2023/03/14 09:33:38;;;;;;;3.23;3.13;;;13.00;99.90;;;;;;4916003;29;20180;-75
2023/03/14 09:36:04;;;;;;;4.13;3.83;;;13.00;99.90;;;;;;4916910;29;20495;-75
2023/03/14 09:38:32;;;;;;;3.63;3.53;;;13.00;99.90;;;;;;4915814;29;20510;-76
2023/03/14 09:41:01;;;;;;;4.37;4.17;;;13.00;99.90;;;;;;4917448;29;20831;-75
2023/03/14 09:43:30;;;;;;;4.50;4.30;;;13.00;99.90;;;;;;4916253;29;20482;-78
2023/03/14 09:45:58;;;;;;;3.50;3.40;;;13.00;99.90;;;;;;4917429;29;20467;-75
2023/03/14 09:48:30;;;;;;;3.10;3.00;;;13.00;99.90;;;;;;4917386;29;20421;-75
2023/03/14 09:50:58;;;;;;;2.40;2.30;;;13.00;99.90;;;;;;4917597;29;20420;-75
2023/03/14 09:53:27;;;;;;;2.33;2.23;;;13.00;99.90;;;;;;4916485;29;20435;-75
2023/03/14 09:55:55;;;;;;;2.30;2.30;;;13.00;99.90;;;;;;4916575;29;20416;-75
2023/03/14 09:58:22;;;;;;;2.30;2.30;;;12.90;99.90;;;;;;4917105;29;20463;-75
2023/03/14 10:00:52;;;;;;;2.20;2.10;;;12.80;99.90;;;;;;4916324;29;21024;-75
2023/03/14 10:03:21;;;;;;;1.60;1.60;;;12.70;99.90;;;;;;4916106;29;20410;-75
2023/03/14 10:05:46;;;;;;;1.93;1.93;;;12.60;99.90;;;;;;4915953;29;20426;-75
2023/03/14 10:08:14;;;;;;;2.80;2.70;;;12.50;99.90;;;;;;4916250;29;20530;-75
2023/03/14 10:10:40;;;;;;;2.10;2.00;;;12.40;99.90;;;;;;4914880;29;20650;-76
2023/03/14 10:13:27;;;;;;;2.20;2.10;;;12.30;99.90;;;;;;4916967;29;20462;-75
2023/03/14 10:16:08;;;;;;;2.33;2.23;;;12.20;99.90;;;;;;4915171;29;20418;-76
2023/03/14 10:18:34;;;;;;;2.90;2.80;;;12.00;99.90;;;;;;4897064;29;20474;-76
2023/03/14 10:21:18;;;;;;;3.30;3.20;;;12.00;99.90;;;;;;4897614;29;20415;-75
2023/03/14 10:23:43;;;;;;;2.60;2.50;;;11.80;99.90;;;;;;4897285;29;20533;-75
2023/03/14 10:26:15;;;;;;;2.50;2.40;;;11.60;99.90;;;;;;4897786;29;20417;-75
2023/03/14 10:28:46;;;;;;;3.20;3.10;;;11.50;99.90;;;;;;4897013;29;20198;-75
2023/03/14 10:31:13;;;;;;;2.50;2.40;;;11.40;99.90;;;;;;4897898;29;20427;-75
2023/03/14 10:33:39;;;;;;;3.10;3.00;;;11.40;99.90;;;;;;4897001;29;20439;-76
2023/03/14 10:36:22;;;;;;;3.60;3.50;;;11.30;99.90;;;;;;4897719;29;20411;-75
2023/03/14 10:38:48;;;;;;;3.23;3.07;;;11.20;99.90;;;;;;4897071;29;20455;-75
2023/03/14 10:41:33;;;;;;;2.53;2.43;;;11.20;99.90;;;;;;4897584;29;20420;-75
2023/03/14 10:44:00;;;;;;;3.00;2.80;;;11.30;99.90;;;;;;4897261;29;20771;-75
2023/03/14 10:46:31;;;;;;;2.63;2.60;;;11.30;99.90;;;;;;4897150;29;20464;-77
2023/03/14 10:48:56;;;;;;;3.03;2.83;;;11.30;99.90;;;;;;4930510;29;20414;-76
2023/03/14 10:51:27;;;;;;;2.90;2.80;;;11.40;99.90;;;;;;4916058;29;20791;-76
2023/03/14 10:53:59;;;;;;;3.47;3.27;;;11.40;99.90;;;;;;4914342;29;20661;-75
2023/03/14 10:56:32;;;;;;;3.53;3.43;;;11.30;99.90;;;;;;4915597;29;20502;-76
2023/03/14 10:58:58;;;;;;;2.93;2.83;;;11.40;99.90;;;;;;4916109;29;20461;-76
2023/03/14 11:01:37;;;;;;;2.83;2.73;;;11.30;99.90;;;;;;4916311;29;20410;-75
2023/03/14 11:04:22;;;;;;;2.57;2.47;;;11.20;99.90;;;;;;4916320;29;20760;-76
2023/03/14 11:06:53;;;;;;;2.20;2.10;;;11.20;99.90;;;;;;4913446;29;20443;-75
2023/03/14 11:09:23;;;;;;;2.10;2.00;;;11.10;99.90;;;;;;4915955;29;20409;-75
2023/03/14 11:11:49;;;;;;;2.47;2.37;;;11.00;99.90;;;;;;4915291;29;20394;-76
2023/03/14 11:14:31;;;;;;;3.00;2.80;;;11.00;99.90;;;;;;4915678;29;20416;-75
2023/03/14 11:17:08;;;;;;;3.20;3.00;;;11.00;99.90;;;;;;4914321;29;20217;-75
2023/03/14 11:19:50;;;;;;;2.70;2.60;;;11.00;99.90;;;;;;4914934;29;20496;-78
2023/03/14 11:22:39;;;;;;;2.40;2.30;;;11.00;99.90;;;;;;4916076;29;20490;-75
2023/03/14 11:25:33;;;;;;;2.40;2.30;;;10.80;99.90;;;;;;4915420;29;20416;-77
2023/03/14 11:28:12;;;;;;;2.50;2.40;;;10.60;99.90;;;;;;4912553;29;20464;-75
2023/03/14 11:30:52;;;;;;;4.13;3.73;;;10.50;99.90;;;;;;4915184;29;20411;-75
2023/03/14 11:33:27;;;;;;;3.40;3.10;;;10.40;99.90;;;;;;4914744;29;20774;-74
2023/03/14 11:36:11;;;;;;;2.00;1.90;;;10.30;99.90;;;;;;4915186;29;20687;-75
2023/03/14 11:38:45;;;;;;;2.40;2.30;;;10.30;99.90;;;;;;4914253;29;20474;-75
2023/03/14 11:41:17;;;;;;;3.10;2.70;;;10.30;99.90;;;;;;4915637;29;20508;-74
2023/03/14 11:43:51;;;;;;;2.87;2.77;;;10.40;99.90;;;;;;4913591;29;20897;-75
2023/03/14 11:46:27;;;;;;;2.53;2.43;;;10.50;99.90;;;;;;4915864;29;20504;-75
2023/03/14 11:49:03;;;;;;;2.67;2.57;;;10.40;99.90;;;;;;4914157;29;20456;-75
2023/03/14 11:51:42;;;;;;;2.50;2.40;;;10.40;99.90;;;;;;4915800;29;20402;-75
2023/03/14 11:54:14;;;;;;;3.90;2.77;;;10.30;99.90;;;;;;4915795;29;20427;-75
2023/03/14 11:56:51;;;;;;;3.80;3.50;;;10.30;99.90;;;;;;4913638;29;20439;-75
2023/03/14 11:59:23;;;;;;;2.30;2.20;;;10.30;99.90;;;;;;4903489;29;20465;-75
2023/03/14 12:02:19;;;;;;;3.10;2.87;;;10.50;99.90;;;;;;4913945;29;20933;-75
2023/03/14 12:05:17;;;;;;;2.40;2.30;;;10.50;99.90;;;;;;4892180;29;20434;-75
2023/03/14 12:08:07;;;;;;;2.53;2.33;;;10.50;99.90;;;;;;4881996;29;20436;-75
2023/03/14 12:10:40;;;;;;;2.33;2.23;;;10.30;99.90;;;;;;4910174;29;20444;-75
2023/03/14 12:13:12;;;;;;;2.37;2.27;;;10.30;99.90;;;;;;4896817;29;20426;-75
2023/03/14 12:15:46;;;;;;;3.40;3.20;;;10.30;99.90;;;;;;4896045;29;20421;-77
2023/03/14 12:18:25;;;;;;;2.80;2.60;;;10.30;99.90;;;;;;4896835;29;20465;-75
2023/03/14 12:20:57;;;;;;;3.50;3.10;;;10.30;99.90;;;;;;4914456;29;20431;-76
2023/03/14 12:23:25;;;;;;;2.30;2.13;;;10.30;99.90;;;;;;4915580;29;20401;-76
2023/03/14 12:26:11;;;;;;;2.70;2.60;;;10.30;99.90;;;;;;4914582;29;20412;-76
2023/03/14 12:28:37;;;;;;;2.60;2.50;;;10.30;99.90;;;;;;4916833;29;20468;-78
2023/03/14 12:31:28;;;;;;;3.00;2.40;;;10.30;99.90;;;;;;4916568;29;20458;-76
2023/03/14 12:34:10;;;;;;;2.30;2.20;;;10.30;99.90;;;;;;4916728;29;20477;-76
2023/03/14 12:36:48;;;;;;;2.30;2.10;;;10.30;99.90;;;;;;4918456;29;20422;-78
2023/03/14 12:39:17;;;;;;;3.13;2.30;;;10.20;99.90;;;;;;4917823;29;20535;-75
2023/03/14 12:41:46;;;;;;;2.83;2.50;;;10.20;99.90;;;;;;4917849;29;20418;-76
2023/03/14 12:44:30;;;;;;;1.80;1.77;;;10.20;99.90;;;;;;4918325;29;20547;-76
2023/03/14 12:47:18;;;;;;;2.00;1.90;;;10.20;99.90;;;;;;4917793;29;20423;-75
2023/03/14 12:49:50;;;;;;;3.40;2.50;;;10.30;99.90;;;;;;4898343;29;20530;-75
2023/03/14 12:52:21;;;;;;;2.40;2.30;;;10.30;99.90;;;;;;4917141;29;20430;-75
2023/03/14 12:55:14;;;;;;;2.40;2.07;;;10.30;99.90;;;;;;4917485;29;20405;-76
2023/03/14 12:57:43;;;;;;;2.50;2.40;;;10.30;99.90;;;;;;4917826;29;20499;-77